Catàleg de serveis del Meteocat
Campanya meteocatpedra

Dades de l'estació automàtica Tivissa

?
?
Resum diari 22:30 TU
Dades diàries de l'estació meteorològica
Temperatura mitjana 9.0 °C
Temperatura màxima 12.0 °C 15:41 TU
Temperatura mínima 6.5 °C 22:25 TU
Humitat relativa mitjana 83%
Precipitació acumulada 12.6 mm
Ratxa màxima del vent (10 m) 24.8 km/h - 250º 18:04 TU
Irradiació solar global 2.8 MJ/m2

El tram horari està expressat en Temps Universal (TU). Cal sumar una hora en horari d'hivern i dues en horari d'estiu per passar a l'hora oficial.

Tivissa

Metadades estació meteorol´gica
Municipi Tivissa
Comarca Ribera d'Ebre
Altitud 317 m
Data alta 26.03.2015
Estat actual Operativa
Dades de període
Període
TU
TM
°C
TX
°C
TN
°C
HRM
%
PPT
mm
VVM (10 m)
km/h
DVM (10 m)
graus
VVX (10 m)
km/h
RS
W/m2
00:00 - 00:30 9.6 9.8 9.4 66 0.0 8.3 261 21.6 0
00:30 - 01:00 9.3 9.8 8.9 69 0.0 3.6 308 9.4 0
01:00 - 01:30 9.0 9.1 8.7 71 0.0 4.0 300 10.4 0
01:30 - 02:00 8.7 9.1 8.4 73 0.0 2.9 288 12.2 0
02:00 - 02:30 9.3 9.5 9.0 70 0.0 4.7 266 9.7 0
02:30 - 03:00 9.1 9.4 8.7 72 0.0 1.1 346 4.0 0
03:00 - 03:30 8.6 8.9 8.3 75 0.0 3.2 117 8.6 0
03:30 - 04:00 8.5 8.7 8.3 77 0.0 3.2 121 7.2 0
04:00 - 04:30 8.6 8.9 8.4 77 0.0 4.0 107 7.2 0
04:30 - 05:00 8.9 9.2 8.8 76 0.0 3.6 143 8.6 0
05:00 - 05:30 8.9 9.1 8.5 77 0.0 2.5 147 7.6 0
05:30 - 06:00 8.4 8.5 8.2 86 0.3 5.4 108 7.9 0
06:00 - 06:30 8.1 8.3 8.0 92 0.2 1.4 75 6.5 0
06:30 - 07:00 8.1 8.1 8.0 95 0.5 1.8 112 4.7 0
07:00 - 07:30 8.1 8.1 8.1 95 0.8 3.6 114 6.1 4
07:30 - 08:00 8.1 8.2 8.1 95 1.2 1.8 129 4.0 11
08:00 - 08:30 8.2 8.2 8.1 96 1.7 1.8 138 3.6 13
08:30 - 09:00 8.3 8.4 8.1 95 2.3 1.4 243 6.5 35
09:00 - 09:30 7.9 8.3 7.6 96 2.3 5.4 316 11.9 27
09:30 - 10:00 7.6 7.6 7.5 97 2.0 3.2 256 9.0 31
10:00 - 10:30 7.8 8.1 7.6 97 1.1 2.9 268 9.0 82
10:30 - 11:00 8.0 8.2 7.9 97 0.1 3.6 270 12.6 58
11:00 - 11:30 8.1 8.2 8.0 97 0.1 4.3 264 10.4 68
11:30 - 12:00 8.4 8.6 8.2 97 0.0 2.2 274 6.1 90
12:00 - 12:30 9.0 9.2 8.5 97 0.0 3.6 285 7.9 128
12:30 - 13:00 9.1 9.2 8.9 97 0.0 2.9 269 7.6 86
13:00 - 13:30 9.3 9.5 9.2 95 0.0 2.2 297 5.0 98
13:30 - 14:00 9.6 9.9 9.3 92 0.0 1.4 323 4.7 162
14:00 - 14:30 10.3 11.3 10.0 89 0.0 2.5 305 6.8 260
14:30 - 15:00 10.9 11.7 10.3 86 0.0 3.2 241 9.0 160
15:00 - 15:30 10.8 11.6 10.3 86 0.0 3.6 307 12.6 160
15:30 - 16:00 11.9 12.0 11.7 77 0.0 8.3 259 16.6 113
16:00 - 16:30 11.4 11.9 11.0 74 0.0 9.0 266 22.0 28
16:30 - 17:00 11.0 11.2 10.6 71 0.0 11.5 261 24.1 1
17:00 - 17:30 10.8 10.9 10.7 69 0.0 13.0 260 24.1 0
17:30 - 18:00 10.6 10.9 10.4 68 0.0 10.8 258 22.3 0
18:00 - 18:30 10.2 10.7 9.8 70 0.0 6.5 269 24.8 0
18:30 - 19:00 9.8 10.2 9.4 71 0.0 5.8 260 9.7 0
19:00 - 19:30 9.4 9.6 9.3 73 0.0 4.0 270 10.1 0
19:30 - 20:00 9.2 9.5 8.7 75 0.0 3.6 251 9.0 0
20:00 - 20:30 9.2 9.7 8.7 75 0.0 6.5 259 15.1 0
20:30 - 21:00 9.3 9.6 9.0 73 0.0 4.7 271 11.2 0
21:00 - 21:30 8.1 8.7 7.6 79 0.0 1.4 263 4.0 0
21:30 - 22:00 7.4 7.8 7.2 81 0.0 2.5 258 9.4 0
22:00 - 22:30 7.0 7.4 6.5 83 0.0 2.5 115 6.5 0
22:30 - 23:00 7.4 8.5 6.6 79 0.0 2.9 146 7.9 0

Les dades en taronja només han passat un control de qualitat automàtic. Resta pendent la seva validació definitiva.